createdAt,value
2023-02-26T00:01:38.034Z,1.95
2023-02-26T00:05:41.045Z,1.86
2023-02-26T00:09:43.976Z,1.84
2023-02-26T00:13:49.212Z,1.81
2023-02-26T00:18:00.512Z,1.79
2023-02-26T00:22:05.357Z,1.76
2023-02-26T00:26:08.593Z,1.73
2023-02-26T00:30:14.115Z,1.66
2023-02-26T00:34:17.482Z,1.57
2023-02-26T00:38:20.837Z,1.46
2023-02-26T00:42:24.422Z,1.42
2023-02-26T00:46:39.520Z,1.36
2023-02-26T00:50:49.302Z,1.34
2023-02-26T00:54:52.697Z,1.29
2023-02-26T00:58:55.933Z,1.23
2023-02-26T01:03:01.045Z,1.15
2023-02-26T01:07:04.688Z,1.13
2023-02-26T01:11:08.252Z,1.09
2023-02-26T01:15:12.375Z,1.05
2023-02-26T01:19:25.478Z,0.95
2023-02-26T01:23:32.869Z,0.92
2023-02-26T01:27:36.217Z,0.95
2023-02-26T01:31:47.453Z,0.87
2023-02-26T01:35:56.729Z,0.85
2023-02-26T01:40:33.139Z,0.82
2023-02-26T01:44:42.754Z,0.75
2023-02-26T01:48:51.127Z,0.73
2023-02-26T01:53:17.527Z,0.71
2023-02-26T01:57:23.066Z,0.69
2023-02-26T02:01:26.315Z,0.59
2023-02-26T02:05:34.058Z,0.53
2023-02-26T02:09:38.620Z,0.46
2023-02-26T02:13:59.017Z,0.46
2023-02-26T02:18:06.895Z,0.45
2023-02-26T02:22:21.969Z,0.40
2023-02-26T02:26:46.636Z,0.36
2023-02-26T02:31:03.387Z,0.32
2023-02-26T02:35:13.189Z,0.27
2023-02-26T02:39:24.140Z,0.26
2023-02-26T02:43:33.617Z,0.30
2023-02-26T02:47:41.723Z,0.28
2023-02-26T02:51:50.534Z,0.17
2023-02-26T02:55:59.420Z,0.10
2023-02-26T03:00:09.089Z,0.08
2023-02-26T03:04:16.090Z,0.11
2023-02-26T03:08:23.268Z,0.03
2023-02-26T03:12:27.140Z,0.00
2023-02-26T03:17:07.411Z,-0.05
2023-02-26T03:21:21.194Z,-0.08
2023-02-26T03:25:28.339Z,-0.05
2023-02-26T03:29:53.170Z,-0.12
2023-02-26T03:34:00.268Z,-0.20
2023-02-26T03:38:10.624Z,-0.21
2023-02-26T03:42:23.950Z,-0.24
2023-02-26T03:46:36.856Z,-0.23
2023-02-26T03:50:46.083Z,-0.25
2023-02-26T03:55:23.072Z,-0.25
2023-02-26T03:59:52.602Z,-0.31
2023-02-26T04:04:19.153Z,-0.34
2023-02-26T04:08:23.536Z,-0.36
2023-02-26T04:12:30.008Z,-0.36
2023-02-26T04:16:33.365Z,-0.39
2023-02-26T04:20:36.793Z,-0.40
2023-02-26T04:24:39.854Z,-0.42
2023-02-26T04:28:44.524Z,-0.44
2023-02-26T04:32:48.012Z,-0.48
2023-02-26T04:36:51.896Z,-0.47
2023-02-26T04:40:56.182Z,-0.51
2023-02-26T04:45:01.774Z,-0.49
2023-02-26T04:49:05.949Z,-0.55
2023-02-26T04:53:09.709Z,-0.60
2023-02-26T04:57:14.269Z,-0.59
2023-02-26T05:01:19.300Z,-0.64
2023-02-26T05:05:22.663Z,-0.65
2023-02-26T05:09:25.720Z,-0.66
2023-02-26T05:13:28.730Z,-0.67
2023-02-26T05:17:34.031Z,-0.66
2023-02-26T05:21:37.260Z,-0.65
2023-02-26T05:25:40.495Z,-0.69
2023-02-26T05:29:45.008Z,-0.71
2023-02-26T05:33:51.304Z,-0.73
2023-02-26T05:37:54.419Z,-0.72
2023-02-26T05:41:57.315Z,-0.74
2023-02-26T05:46:00.950Z,-0.75
2023-02-26T05:50:06.519Z,-0.75
2023-02-26T05:54:09.762Z,-0.74
2023-02-26T05:58:13.151Z,-0.75
2023-02-26T06:02:16.367Z,-0.80
2023-02-26T06:06:21.747Z,-0.80
2023-02-26T06:10:24.904Z,-0.83
2023-02-26T06:14:27.958Z,-0.83
2023-02-26T06:18:32.262Z,-0.86
2023-02-26T06:22:36.647Z,-0.87
2023-02-26T06:26:39.912Z,-0.90
2023-02-26T06:30:42.883Z,-0.91
2023-02-26T06:34:45.814Z,-0.93
2023-02-26T06:38:50.195Z,-0.93
2023-02-26T06:42:53.155Z,-0.97
2023-02-26T06:46:56.047Z,-0.97
2023-02-26T06:50:59.068Z,-0.96
2023-02-26T06:55:03.456Z,-0.94
2023-02-26T06:59:06.661Z,-0.90
2023-02-26T07:03:13.105Z,-0.83
2023-02-26T07:07:16.068Z,-0.81
2023-02-26T07:11:20.365Z,-0.78
2023-02-26T07:15:23.500Z,-0.76
2023-02-26T07:19:26.569Z,-0.74
2023-02-26T07:23:29.865Z,-0.69
2023-02-26T07:27:34.424Z,-0.62
2023-02-26T07:31:37.410Z,-0.57
2023-02-26T07:35:41.007Z,-0.56
2023-02-26T07:39:43.918Z,-0.48
2023-02-26T07:43:48.287Z,-0.43
2023-02-26T07:47:52.549Z,-0.36
2023-02-26T07:51:55.818Z,-0.28
2023-02-26T07:55:58.619Z,-0.21
2023-02-26T08:00:04.791Z,-0.20
2023-02-26T08:04:15.355Z,-0.16
2023-02-26T08:08:18.345Z,-0.07
2023-02-26T08:12:21.439Z,-0.04
2023-02-26T08:16:26.570Z,0.06
2023-02-26T08:20:29.871Z,0.18
2023-02-26T08:24:33.452Z,0.30
2023-02-26T08:28:36.802Z,0.40
2023-02-26T08:32:42.403Z,0.47
2023-02-26T08:36:45.619Z,0.51
2023-02-26T08:40:50.319Z,0.64
2023-02-26T08:44:53.366Z,0.71
2023-02-26T08:48:57.780Z,0.83
2023-02-26T08:53:00.872Z,0.92
2023-02-26T08:57:03.841Z,1.03
2023-02-26T09:01:07.047Z,1.13
2023-02-26T09:05:12.917Z,1.20
2023-02-26T09:09:16.264Z,1.25
2023-02-26T09:13:19.549Z,1.31
2023-02-26T09:17:22.535Z,1.46
2023-02-26T09:21:26.898Z,1.56
2023-02-26T09:25:29.817Z,1.61
2023-02-26T09:29:32.747Z,1.71
2023-02-26T09:33:36.505Z,1.78
2023-02-26T09:37:41.108Z,1.82
2023-02-26T09:41:48.563Z,1.94
2023-02-26T09:45:52.697Z,2.06
2023-02-26T09:50:02.026Z,2.20
2023-02-26T09:54:16.964Z,2.30
2023-02-26T09:58:25.032Z,2.43
2023-02-26T10:02:37.904Z,2.51
2023-02-26T10:06:51.023Z,2.62
2023-02-26T10:11:04.987Z,2.73
2023-02-26T10:15:14.342Z,2.77
2023-02-26T10:19:20.746Z,2.89
2023-02-26T10:23:29.801Z,2.97
2023-02-26T10:27:48.310Z,3.06
2023-02-26T10:32:03.211Z,3.17
2023-02-26T10:36:16.614Z,3.29
2023-02-26T10:40:25.660Z,3.44
2023-02-26T10:44:38.453Z,3.42
2023-02-26T10:48:55.740Z,3.37
2023-02-26T10:52:59.861Z,3.45
2023-02-26T10:57:04.082Z,3.62
2023-02-26T11:01:17.163Z,3.70
2023-02-26T11:05:23.695Z,3.89
2023-02-26T11:09:28.685Z,3.91
2023-02-26T11:13:34.869Z,3.96
2023-02-26T11:17:39.527Z,4.09
2023-02-26T11:21:46.207Z,4.42
2023-02-26T11:25:54.338Z,4.75
2023-02-26T11:29:59.617Z,5.07
2023-02-26T11:34:06.790Z,5.30
2023-02-26T11:38:19.769Z,5.62
2023-02-26T11:42:22.960Z,5.98
2023-02-26T11:46:28.733Z,6.18
2023-02-26T11:50:43.147Z,6.36
2023-02-26T11:54:47.764Z,6.64
2023-02-26T11:58:55.453Z,6.75
2023-02-26T12:03:04.366Z,6.97
2023-02-26T12:07:14.986Z,7.15
2023-02-26T12:11:43.776Z,7.26
2023-02-26T12:15:58.325Z,7.35
2023-02-26T12:20:15.322Z,7.45
2023-02-26T12:24:41.029Z,7.44
2023-02-26T12:29:23.894Z,7.32
2023-02-26T12:33:39.362Z,7.37
2023-02-26T12:37:53.008Z,7.47
2023-02-26T12:42:09.959Z,7.32
2023-02-26T12:46:24.476Z,7.21
2023-02-26T12:50:48.377Z,7.37
2023-02-26T12:55:05.400Z,7.45
2023-02-26T12:59:41.488Z,7.64
2023-02-26T13:04:13.928Z,7.75
2023-02-26T13:08:24.446Z,7.83
2023-02-26T13:12:38.646Z,7.75
2023-02-26T13:16:51.698Z,7.70
2023-02-26T13:21:00.515Z,7.71
2023-02-26T13:25:07.430Z,7.79
2023-02-26T13:29:17.925Z,7.83
2023-02-26T13:33:28.098Z,7.89
2023-02-26T13:37:33.838Z,7.86
2023-02-26T13:41:46.210Z,7.87
2023-02-26T13:45:59.457Z,7.97
2023-02-26T13:50:28.495Z,7.85
2023-02-26T13:54:43.646Z,7.73
2023-02-26T13:58:53.179Z,7.65
2023-02-26T14:02:58.516Z,7.71
2023-02-26T14:07:11.856Z,7.78
2023-02-26T14:11:42.089Z,7.75
2023-02-26T14:15:53.858Z,7.85
2023-02-26T14:20:18.923Z,8.02
2023-02-26T14:24:35.944Z,7.94
2023-02-26T14:28:45.435Z,7.81
2023-02-26T14:32:54.040Z,7.74
2023-02-26T14:37:00.826Z,7.71
2023-02-26T14:41:10.991Z,7.65
2023-02-26T14:45:27.332Z,7.46
2023-02-26T14:49:33.620Z,7.43
2023-02-26T14:54:15.014Z,7.44
2023-02-26T14:58:38.071Z,7.43
2023-02-26T15:03:06.231Z,7.40
2023-02-26T15:07:23.093Z,7.28
2023-02-26T15:11:38.851Z,7.20
2023-02-26T15:15:53.381Z,7.05
2023-02-26T15:20:06.891Z,6.74
2023-02-26T15:24:14.370Z,6.37
2023-02-26T15:28:30.140Z,6.18
2023-02-26T15:32:41.083Z,6.15
2023-02-26T15:36:46.598Z,6.16
2023-02-26T15:40:51.530Z,6.19
2023-02-26T15:45:03.023Z,6.07
2023-02-26T15:49:11.934Z,5.97
2023-02-26T15:53:22.414Z,5.98
2023-02-26T15:57:27.432Z,5.97
2023-02-26T16:01:32.452Z,5.86
2023-02-26T16:05:38.670Z,5.81
2023-02-26T16:09:43.470Z,5.71
2023-02-26T16:13:49.853Z,5.62
2023-02-26T16:17:56.893Z,5.61
2023-02-26T16:22:06.014Z,5.55
2023-02-26T16:26:14.873Z,5.48
2023-02-26T16:30:38.736Z,5.39
2023-02-26T16:34:45.379Z,5.37
2023-02-26T16:38:52.244Z,5.24
2023-02-26T16:43:02.232Z,5.17
2023-02-26T16:47:05.564Z,5.13
2023-02-26T16:51:12.567Z,5.09
2023-02-26T16:55:19.331Z,5.00
2023-02-26T16:59:25.601Z,4.96
2023-02-26T17:03:31.041Z,4.89
2023-02-26T17:07:36.482Z,4.81
2023-02-26T17:11:45.652Z,4.81
2023-02-26T17:15:49.159Z,4.75
2023-02-26T17:19:53.058Z,4.71
2023-02-26T17:24:01.887Z,4.59
2023-02-26T17:28:07.298Z,4.51
2023-02-26T17:32:19.797Z,4.42
2023-02-26T17:36:22.673Z,4.33
2023-02-26T17:40:28.063Z,4.27
2023-02-26T17:44:32.208Z,4.14
2023-02-26T17:48:35.586Z,4.05
2023-02-26T17:52:38.394Z,4.01
2023-02-26T17:56:42.177Z,3.95
2023-02-26T18:00:49.917Z,3.96
2023-02-26T18:04:53.082Z,3.93
2023-02-26T18:08:55.968Z,3.87
2023-02-26T18:12:59.587Z,3.81
2023-02-26T18:17:04.070Z,3.79
2023-02-26T18:21:06.997Z,3.71
2023-02-26T18:25:12.651Z,3.66
2023-02-26T18:29:15.470Z,3.56
2023-02-26T18:33:20.574Z,3.51
2023-02-26T18:37:26.163Z,3.42
2023-02-26T18:41:29.362Z,3.29
2023-02-26T18:45:32.346Z,3.26
2023-02-26T18:49:36.939Z,3.15
2023-02-26T18:53:40.502Z,3.09
2023-02-26T18:57:43.523Z,3.04
2023-02-26T19:01:47.137Z,2.98
2023-02-26T19:05:58.765Z,2.91
2023-02-26T19:10:02.324Z,2.87
2023-02-26T19:14:05.563Z,2.82
2023-02-26T19:18:08.428Z,2.69
2023-02-26T19:22:14.889Z,2.66
2023-02-26T19:26:17.755Z,2.54
2023-02-26T19:30:21.557Z,2.44
2023-02-26T19:34:24.591Z,2.39
2023-02-26T19:38:28.764Z,2.32
2023-02-26T19:42:31.618Z,2.31
2023-02-26T19:46:36.001Z,2.30
2023-02-26T19:50:38.912Z,2.26
2023-02-26T19:54:43.148Z,2.22
2023-02-26T19:58:46.051Z,2.17
2023-02-26T20:02:48.975Z,2.18
2023-02-26T20:06:51.907Z,2.12
2023-02-26T20:10:58.284Z,2.05
2023-02-26T20:15:01.112Z,2.01
2023-02-26T20:19:03.986Z,2.00
2023-02-26T20:23:06.781Z,1.96
2023-02-26T20:27:11.017Z,1.88
2023-02-26T20:31:14.038Z,1.80
2023-02-26T20:35:17.004Z,1.73
2023-02-26T20:39:21.027Z,1.66
2023-02-26T20:43:25.965Z,1.63
2023-02-26T20:47:28.832Z,1.61
2023-02-26T20:51:32.138Z,1.56
2023-02-26T20:55:35.083Z,1.54
2023-02-26T20:59:39.369Z,1.49
2023-02-26T21:03:42.220Z,1.44
2023-02-26T21:07:45.446Z,1.40
2023-02-26T21:11:48.460Z,1.34
2023-02-26T21:15:52.668Z,1.27
2023-02-26T21:19:55.665Z,1.22
2023-02-26T21:23:58.488Z,1.17
2023-02-26T21:28:01.316Z,1.13
2023-02-26T21:32:07.110Z,1.09
2023-02-26T21:36:11.463Z,1.03
2023-02-26T21:40:15.968Z,1.00
2023-02-26T21:44:18.830Z,0.97
2023-02-26T21:48:23.901Z,0.95
2023-02-26T21:52:28.804Z,0.94
2023-02-26T21:56:31.953Z,0.93
2023-02-26T22:00:34.957Z,0.93
2023-02-26T22:04:39.118Z,0.87
2023-02-26T22:08:41.955Z,0.86
2023-02-26T22:12:44.824Z,0.86
2023-02-26T22:16:47.784Z,0.85
2023-02-26T22:20:52.019Z,0.83
2023-02-26T22:24:54.835Z,0.79
2023-02-26T22:28:59.680Z,0.79
2023-02-26T22:33:02.528Z,0.75
2023-02-26T22:37:06.698Z,0.71
2023-02-26T22:41:09.518Z,0.69
2023-02-26T22:45:13.536Z,0.67
2023-02-26T22:49:16.727Z,0.65
2023-02-26T22:53:20.894Z,0.64
2023-02-26T22:57:23.697Z,0.60
2023-02-26T23:01:26.619Z,0.58
2023-02-26T23:05:29.565Z,0.53
2023-02-26T23:09:33.827Z,0.48
2023-02-26T23:13:38.109Z,0.44
2023-02-26T23:17:41.471Z,0.40
2023-02-26T23:21:44.279Z,0.34
2023-02-26T23:25:48.418Z,0.31
2023-02-26T23:29:51.544Z,0.25
2023-02-26T23:33:54.306Z,0.21
2023-02-26T23:37:57.297Z,0.17
2023-02-26T23:42:01.543Z,0.15
2023-02-26T23:46:04.589Z,0.11
2023-02-26T23:50:08.616Z,0.07
2023-02-26T23:54:12.114Z,0.04
2023-02-26T23:58:16.319Z,0.00
